Hudsonville, Indiana
Current Conditions -  °F | °C
As of 4:55 PM on Tuesday 27 Jan 2015 (Local Time) from KDCY Reporting Station
Overcast Overcast  
Wind Chill: 27°   Ceiling: 1600
Heat Index: 32°   Visibility: 10mi
Dew Point: 28°   Wind: 5mph
Humidity: 87%   Direction: 360°N
Pressure: 30.2"   Gusts: NA
Location:  38.6251°N, 87.0452°W
Report Text: KDCY 272255Z AUTO 36004KT 10SM OVC016 00/M02 A3020 RMK AO2 T10021021
Loading
Personal Weather Stations






























Interactive Weather Map New forecast layout! Learn more

10-Day Weather Forecast

Advertisements
Track Severe Weather on mobile